sensor_id;sensor_type;location;lat;lon;timestamp;P1;durP1;ratioP1;P2;durP2;ratioP2
11422;SDS011;5768;51.476;7.210;2023-09-07T00:05:00;7.78;;;5.47;;
11422;SDS011;5768;51.476;7.210;2023-09-07T00:10:09;9.43;;;5.93;;
11422;SDS011;5768;51.476;7.210;2023-09-07T00:15:12;6.32;;;5.60;;
11422;SDS011;5768;51.476;7.210;2023-09-07T00:20:17;8.52;;;5.47;;
11422;SDS011;5768;51.476;7.210;2023-09-07T00:25:19;9.40;;;6.45;;
11422;SDS011;5768;51.476;7.210;2023-09-07T00:30:23;8.15;;;6.18;;
11422;SDS011;5768;51.476;7.210;2023-09-07T00:35:27;10.13;;;5.80;;
11422;SDS011;5768;51.476;7.210;2023-09-07T00:40:30;6.93;;;5.35;;
11422;SDS011;5768;51.476;7.210;2023-09-07T00:45:35;5.65;;;5.13;;
11422;SDS011;5768;51.476;7.210;2023-09-07T00:50:43;7.50;;;5.40;;
11422;SDS011;5768;51.476;7.210;2023-09-07T00:55:46;6.78;;;4.90;;
11422;SDS011;5768;51.476;7.210;2023-09-07T01:00:49;9.02;;;5.30;;
11422;SDS011;5768;51.476;7.210;2023-09-07T01:05:55;6.25;;;5.30;;
11422;SDS011;5768;51.476;7.210;2023-09-07T01:11:12;6.95;;;5.43;;
11422;SDS011;5768;51.476;7.210;2023-09-07T01:16:17;8.35;;;5.22;;
11422;SDS011;5768;51.476;7.210;2023-09-07T01:21:26;6.38;;;5.78;;
11422;SDS011;5768;51.476;7.210;2023-09-07T01:26:37;7.07;;;6.00;;
11422;SDS011;5768;51.476;7.210;2023-09-07T01:31:40;7.25;;;6.00;;
11422;SDS011;5768;51.476;7.210;2023-09-07T01:36:44;8.07;;;6.40;;
11422;SDS011;5768;51.476;7.210;2023-09-07T01:41:46;11.38;;;7.07;;
11422;SDS011;5768;51.476;7.210;2023-09-07T01:46:49;9.15;;;6.95;;
11422;SDS011;5768;51.476;7.210;2023-09-07T01:51:55;12.40;;;7.18;;
11422;SDS011;5768;51.476;7.210;2023-09-07T01:56:57;11.30;;;7.20;;
11422;SDS011;5768;51.476;7.210;2023-09-07T02:02:02;12.57;;;7.35;;
11422;SDS011;5768;51.476;7.210;2023-09-07T02:07:06;9.98;;;7.30;;
11422;SDS011;5768;51.476;7.210;2023-09-07T02:12:08;12.00;;;7.63;;
11422;SDS011;5768;51.476;7.210;2023-09-07T02:17:11;16.50;;;7.78;;
11422;SDS011;5768;51.476;7.210;2023-09-07T02:22:19;11.85;;;7.60;;
11422;SDS011;5768;51.476;7.210;2023-09-07T02:27:21;10.50;;;7.68;;
11422;SDS011;5768;51.476;7.210;2023-09-07T02:32:24;11.38;;;7.70;;
11422;SDS011;5768;51.476;7.210;2023-09-07T02:37:27;12.70;;;8.18;;
11422;SDS011;5768;51.476;7.210;2023-09-07T02:42:30;9.32;;;7.38;;
11422;SDS011;5768;51.476;7.210;2023-09-07T02:47:32;8.98;;;7.22;;
11422;SDS011;5768;51.476;7.210;2023-09-07T02:52:36;12.68;;;7.30;;
11422;SDS011;5768;51.476;7.210;2023-09-07T02:57:38;12.27;;;7.40;;
11422;SDS011;5768;51.476;7.210;2023-09-07T03:02:40;11.15;;;6.72;;
11422;SDS011;5768;51.476;7.210;2023-09-07T03:07:44;9.50;;;6.20;;
11422;SDS011;5768;51.476;7.210;2023-09-07T03:12:48;9.27;;;5.32;;
11422;SDS011;5768;51.476;7.210;2023-09-07T03:17:58;8.25;;;5.32;;
11422;SDS011;5768;51.476;7.210;2023-09-07T03:23:02;7.50;;;5.30;;
11422;SDS011;5768;51.476;7.210;2023-09-07T03:28:05;5.88;;;5.18;;
11422;SDS011;5768;51.476;7.210;2023-09-07T03:33:08;7.78;;;5.63;;
11422;SDS011;5768;51.476;7.210;2023-09-07T03:38:12;6.13;;;4.97;;
11422;SDS011;5768;51.476;7.210;2023-09-07T03:43:28;5.85;;;5.20;;
11422;SDS011;5768;51.476;7.210;2023-09-07T03:48:30;6.22;;;4.55;;
11422;SDS011;5768;51.476;7.210;2023-09-07T03:53:34;9.35;;;5.28;;
11422;SDS011;5768;51.476;7.210;2023-09-07T03:58:37;6.65;;;5.13;;
11422;SDS011;5768;51.476;7.210;2023-09-07T04:03:40;6.80;;;5.30;;
11422;SDS011;5768;51.476;7.210;2023-09-07T04:08:44;6.93;;;5.45;;
11422;SDS011;5768;51.476;7.210;2023-09-07T04:13:46;5.90;;;5.30;;
11422;SDS011;5768;51.476;7.210;2023-09-07T04:18:49;7.03;;;5.13;;
11422;SDS011;5768;51.476;7.210;2023-09-07T04:23:52;9.40;;;5.22;;
11422;SDS011;5768;51.476;7.210;2023-09-07T04:28:54;6.80;;;4.70;;
11422;SDS011;5768;51.476;7.210;2023-09-07T04:33:57;8.18;;;5.45;;
11422;SDS011;5768;51.476;7.210;2023-09-07T04:39:01;8.20;;;5.45;;
11422;SDS011;5768;51.476;7.210;2023-09-07T04:44:03;6.82;;;5.30;;
11422;SDS011;5768;51.476;7.210;2023-09-07T04:49:06;6.32;;;5.22;;
11422;SDS011;5768;51.476;7.210;2023-09-07T04:54:12;5.72;;;5.13;;
11422;SDS011;5768;51.476;7.210;2023-09-07T04:59:16;7.43;;;4.95;;
11422;SDS011;5768;51.476;7.210;2023-09-07T05:04:18;6.35;;;5.68;;
11422;SDS011;5768;51.476;7.210;2023-09-07T05:09:22;7.00;;;5.15;;
11422;SDS011;5768;51.476;7.210;2023-09-07T05:14:25;6.95;;;5.18;;
11422;SDS011;5768;51.476;7.210;2023-09-07T05:19:29;6.45;;;4.90;;
11422;SDS011;5768;51.476;7.210;2023-09-07T05:24:38;7.57;;;5.57;;
11422;SDS011;5768;51.476;7.210;2023-09-07T05:29:41;7.82;;;5.93;;
11422;SDS011;5768;51.476;7.210;2023-09-07T05:34:43;7.97;;;6.30;;
11422;SDS011;5768;51.476;7.210;2023-09-07T05:39:47;10.27;;;6.50;;
11422;SDS011;5768;51.476;7.210;2023-09-07T05:44:49;9.00;;;6.45;;
11422;SDS011;5768;51.476;7.210;2023-09-07T05:49:52;12.30;;;6.00;;
11422;SDS011;5768;51.476;7.210;2023-09-07T05:54:55;11.68;;;6.97;;
11422;SDS011;5768;51.476;7.210;2023-09-07T05:59:58;7.93;;;6.13;;
11422;SDS011;5768;51.476;7.210;2023-09-07T06:05:00;11.00;;;7.00;;
11422;SDS011;5768;51.476;7.210;2023-09-07T06:10:04;13.80;;;8.43;;
11422;SDS011;5768;51.476;7.210;2023-09-07T06:15:07;21.85;;;10.85;;
11422;SDS011;5768;51.476;7.210;2023-09-07T06:20:10;24.38;;;12.10;;
11422;SDS011;5768;51.476;7.210;2023-09-07T06:25:14;12.18;;;7.43;;
11422;SDS011;5768;51.476;7.210;2023-09-07T06:30:17;14.13;;;7.45;;
11422;SDS011;5768;51.476;7.210;2023-09-07T06:35:20;16.88;;;10.27;;
11422;SDS011;5768;51.476;7.210;2023-09-07T06:40:24;10.90;;;7.75;;
11422;SDS011;5768;51.476;7.210;2023-09-07T06:45:27;9.75;;;5.47;;
11422;SDS011;5768;51.476;7.210;2023-09-07T06:50:29;6.95;;;5.55;;
11422;SDS011;5768;51.476;7.210;2023-09-07T06:55:33;7.22;;;5.25;;
11422;SDS011;5768;51.476;7.210;2023-09-07T07:00:35;8.63;;;5.85;;
11422;SDS011;5768;51.476;7.210;2023-09-07T07:05:38;8.00;;;6.05;;
11422;SDS011;5768;51.476;7.210;2023-09-07T07:10:41;7.15;;;5.93;;
11422;SDS011;5768;51.476;7.210;2023-09-07T07:15:44;8.30;;;5.50;;
11422;SDS011;5768;51.476;7.210;2023-09-07T07:20:46;5.78;;;5.10;;
11422;SDS011;5768;51.476;7.210;2023-09-07T07:25:49;7.20;;;5.20;;
11422;SDS011;5768;51.476;7.210;2023-09-07T07:30:52;5.85;;;4.82;;
11422;SDS011;5768;51.476;7.210;2023-09-07T07:35:54;12.77;;;5.18;;
11422;SDS011;5768;51.476;7.210;2023-09-07T07:40:58;6.97;;;5.60;;
11422;SDS011;5768;51.476;7.210;2023-09-07T07:46:00;10.90;;;5.20;;
11422;SDS011;5768;51.476;7.210;2023-09-07T07:51:03;9.70;;;4.78;;
11422;SDS011;5768;51.476;7.210;2023-09-07T07:56:13;6.05;;;4.95;;
11422;SDS011;5768;51.476;7.210;2023-09-07T08:01:17;12.85;;;5.60;;
11422;SDS011;5768;51.476;7.210;2023-09-07T08:06:21;7.18;;;4.40;;
11422;SDS011;5768;51.476;7.210;2023-09-07T08:11:24;7.65;;;4.63;;
11422;SDS011;5768;51.476;7.210;2023-09-07T08:16:27;6.85;;;4.97;;
11422;SDS011;5768;51.476;7.210;2023-09-07T08:21:29;9.85;;;4.70;;
11422;SDS011;5768;51.476;7.210;2023-09-07T08:26:33;6.00;;;4.60;;
11422;SDS011;5768;51.476;7.210;2023-09-07T08:31:38;7.63;;;4.57;;
11422;SDS011;5768;51.476;7.210;2023-09-07T08:36:41;8.27;;;4.32;;
11422;SDS011;5768;51.476;7.210;2023-09-07T08:41:45;8.05;;;4.03;;
11422;SDS011;5768;51.476;7.210;2023-09-07T08:46:48;6.43;;;4.68;;
11422;SDS011;5768;51.476;7.210;2023-09-07T08:51:52;8.27;;;5.28;;
11422;SDS011;5768;51.476;7.210;2023-09-07T08:57:01;5.80;;;4.38;;
11422;SDS011;5768;51.476;7.210;2023-09-07T09:02:06;7.18;;;4.20;;
11422;SDS011;5768;51.476;7.210;2023-09-07T09:07:11;5.03;;;3.88;;
11422;SDS011;5768;51.476;7.210;2023-09-07T09:12:14;6.07;;;3.92;;
11422;SDS011;5768;51.476;7.210;2023-09-07T09:17:17;3.90;;;3.60;;
11422;SDS011;5768;51.476;7.210;2023-09-07T09:22:19;3.88;;;3.55;;
11422;SDS011;5768;51.476;7.210;2023-09-07T09:27:23;6.28;;;3.70;;
11422;SDS011;5768;51.476;7.210;2023-09-07T09:32:25;6.20;;;3.50;;
11422;SDS011;5768;51.476;7.210;2023-09-07T09:37:28;4.18;;;3.78;;
11422;SDS011;5768;51.476;7.210;2023-09-07T09:42:32;5.40;;;3.80;;
11422;SDS011;5768;51.476;7.210;2023-09-07T09:47:35;4.50;;;3.63;;
11422;SDS011;5768;51.476;7.210;2023-09-07T09:52:41;4.07;;;3.67;;
11422;SDS011;5768;51.476;7.210;2023-09-07T09:57:46;4.00;;;3.70;;
11422;SDS011;5768;51.476;7.210;2023-09-07T10:02:51;5.18;;;3.75;;
11422;SDS011;5768;51.476;7.210;2023-09-07T10:08:08;4.30;;;3.90;;
11422;SDS011;5768;51.476;7.210;2023-09-07T10:13:15;4.80;;;3.80;;
11422;SDS011;5768;51.476;7.210;2023-09-07T10:18:32;5.75;;;4.13;;
11422;SDS011;5768;51.476;7.210;2023-09-07T10:23:36;3.80;;;3.50;;
11422;SDS011;5768;51.476;7.210;2023-09-07T10:28:43;4.97;;;4.18;;
11422;SDS011;5768;51.476;7.210;2023-09-07T10:33:46;5.00;;;4.30;;
11422;SDS011;5768;51.476;7.210;2023-09-07T10:38:49;6.15;;;3.70;;
11422;SDS011;5768;51.476;7.210;2023-09-07T10:43:54;4.78;;;3.50;;
11422;SDS011;5768;51.476;7.210;2023-09-07T10:48:57;4.88;;;3.88;;
11422;SDS011;5768;51.476;7.210;2023-09-07T10:54:00;4.82;;;3.85;;
11422;SDS011;5768;51.476;7.210;2023-09-07T10:59:04;4.38;;;3.78;;
11422;SDS011;5768;51.476;7.210;2023-09-07T11:04:06;5.03;;;4.10;;
11422;SDS011;5768;51.476;7.210;2023-09-07T11:09:11;4.80;;;3.90;;
11422;SDS011;5768;51.476;7.210;2023-09-07T11:14:18;4.28;;;3.85;;
11422;SDS011;5768;51.476;7.210;2023-09-07T11:19:23;5.78;;;3.90;;
11422;SDS011;5768;51.476;7.210;2023-09-07T11:24:27;6.43;;;3.75;;
11422;SDS011;5768;51.476;7.210;2023-09-07T11:29:32;5.88;;;3.92;;
11422;SDS011;5768;51.476;7.210;2023-09-07T11:34:34;4.57;;;3.58;;
11422;SDS011;5768;51.476;7.210;2023-09-07T11:39:48;4.97;;;3.80;;
11422;SDS011;5768;51.476;7.210;2023-09-07T11:44:52;4.00;;;3.55;;
11422;SDS011;5768;51.476;7.210;2023-09-07T11:49:54;5.07;;;3.50;;
11422;SDS011;5768;51.476;7.210;2023-09-07T11:54:56;4.03;;;3.42;;
11422;SDS011;5768;51.476;7.210;2023-09-07T12:00:00;4.03;;;3.63;;
11422;SDS011;5768;51.476;7.210;2023-09-07T12:05:03;3.55;;;3.20;;
11422;SDS011;5768;51.476;7.210;2023-09-07T12:10:08;5.25;;;3.63;;
11422;SDS011;5768;51.476;7.210;2023-09-07T12:15:13;4.70;;;3.70;;
11422;SDS011;5768;51.476;7.210;2023-09-07T12:20:15;6.72;;;3.85;;
11422;SDS011;5768;51.476;7.210;2023-09-07T12:25:17;3.80;;;3.42;;
11422;SDS011;5768;51.476;7.210;2023-09-07T12:30:21;4.93;;;3.40;;
11422;SDS011;5768;51.476;7.210;2023-09-07T12:35:25;4.22;;;3.83;;
11422;SDS011;5768;51.476;7.210;2023-09-07T12:40:27;6.35;;;3.90;;
11422;SDS011;5768;51.476;7.210;2023-09-07T12:45:30;3.92;;;3.53;;
11422;SDS011;5768;51.476;7.210;2023-09-07T12:50:33;4.05;;;3.47;;
11422;SDS011;5768;51.476;7.210;2023-09-07T12:55:35;4.80;;;3.67;;
11422;SDS011;5768;51.476;7.210;2023-09-07T13:00:39;6.35;;;3.67;;
11422;SDS011;5768;51.476;7.210;2023-09-07T13:05:41;4.40;;;3.92;;
11422;SDS011;5768;51.476;7.210;2023-09-07T13:10:43;4.43;;;3.70;;
11422;SDS011;5768;51.476;7.210;2023-09-07T13:15:47;4.53;;;3.97;;
11422;SDS011;5768;51.476;7.210;2023-09-07T13:20:49;9.73;;;3.58;;
11422;SDS011;5768;51.476;7.210;2023-09-07T13:25:55;5.95;;;3.85;;
11422;SDS011;5768;51.476;7.210;2023-09-07T13:31:01;3.70;;;3.38;;
11422;SDS011;5768;51.476;7.210;2023-09-07T13:36:04;7.18;;;4.07;;
11422;SDS011;5768;51.476;7.210;2023-09-07T13:41:07;4.63;;;3.38;;
11422;SDS011;5768;51.476;7.210;2023-09-07T13:46:10;3.83;;;3.53;;
11422;SDS011;5768;51.476;7.210;2023-09-07T13:51:13;6.05;;;3.75;;
11422;SDS011;5768;51.476;7.210;2023-09-07T13:56:15;5.78;;;3.58;;
11422;SDS011;5768;51.476;7.210;2023-09-07T14:01:19;3.80;;;3.47;;
11422;SDS011;5768;51.476;7.210;2023-09-07T14:06:21;5.35;;;3.40;;
11422;SDS011;5768;51.476;7.210;2023-09-07T14:11:24;3.88;;;3.20;;
11422;SDS011;5768;51.476;7.210;2023-09-07T14:16:28;6.75;;;3.63;;
11422;SDS011;5768;51.476;7.210;2023-09-07T14:21:30;3.55;;;2.88;;
11422;SDS011;5768;51.476;7.210;2023-09-07T14:26:32;7.35;;;3.30;;
11422;SDS011;5768;51.476;7.210;2023-09-07T14:31:36;5.20;;;3.10;;
11422;SDS011;5768;51.476;7.210;2023-09-07T14:36:38;3.33;;;2.55;;
11422;SDS011;5768;51.476;7.210;2023-09-07T14:41:41;4.88;;;2.90;;
11422;SDS011;5768;51.476;7.210;2023-09-07T14:46:45;5.22;;;2.83;;
11422;SDS011;5768;51.476;7.210;2023-09-07T14:51:49;2.70;;;2.50;;
11422;SDS011;5768;51.476;7.210;2023-09-07T14:56:51;3.05;;;2.70;;
11422;SDS011;5768;51.476;7.210;2023-09-07T15:01:55;2.53;;;2.28;;
11422;SDS011;5768;51.476;7.210;2023-09-07T15:06:57;3.25;;;2.63;;
11422;SDS011;5768;51.476;7.210;2023-09-07T15:12:00;3.42;;;2.60;;
11422;SDS011;5768;51.476;7.210;2023-09-07T15:17:06;2.58;;;2.38;;
11422;SDS011;5768;51.476;7.210;2023-09-07T15:22:09;2.50;;;2.30;;
11422;SDS011;5768;51.476;7.210;2023-09-07T15:27:11;2.38;;;2.00;;
11422;SDS011;5768;51.476;7.210;2023-09-07T15:32:15;2.65;;;2.30;;
11422;SDS011;5768;51.476;7.210;2023-09-07T15:37:17;3.05;;;2.40;;
11422;SDS011;5768;51.476;7.210;2023-09-07T15:42:20;4.03;;;2.30;;
11422;SDS011;5768;51.476;7.210;2023-09-07T15:47:23;3.63;;;2.40;;
11422;SDS011;5768;51.476;7.210;2023-09-07T15:52:26;3.55;;;2.33;;
11422;SDS011;5768;51.476;7.210;2023-09-07T15:57:29;2.97;;;2.30;;
11422;SDS011;5768;51.476;7.210;2023-09-07T16:02:33;4.40;;;2.20;;
11422;SDS011;5768;51.476;7.210;2023-09-07T16:07:35;2.80;;;2.40;;
11422;SDS011;5768;51.476;7.210;2023-09-07T16:12:37;5.28;;;2.50;;
11422;SDS011;5768;51.476;7.210;2023-09-07T16:17:41;3.13;;;2.22;;
11422;SDS011;5768;51.476;7.210;2023-09-07T16:22:44;3.80;;;2.50;;
11422;SDS011;5768;51.476;7.210;2023-09-07T16:27:47;3.60;;;2.50;;
11422;SDS011;5768;51.476;7.210;2023-09-07T16:32:54;4.03;;;2.55;;
11422;SDS011;5768;51.476;7.210;2023-09-07T16:37:56;2.97;;;2.78;;
11422;SDS011;5768;51.476;7.210;2023-09-07T16:42:58;3.90;;;3.25;;
11422;SDS011;5768;51.476;7.210;2023-09-07T16:48:02;2.60;;;2.40;;
11422;SDS011;5768;51.476;7.210;2023-09-07T16:53:06;3.38;;;2.90;;
11422;SDS011;5768;51.476;7.210;2023-09-07T16:58:08;5.65;;;2.88;;
11422;SDS011;5768;51.476;7.210;2023-09-07T17:03:12;4.38;;;3.83;;
11422;SDS011;5768;51.476;7.210;2023-09-07T17:08:14;4.63;;;3.47;;
11422;SDS011;5768;51.476;7.210;2023-09-07T17:13:17;5.50;;;3.67;;
11422;SDS011;5768;51.476;7.210;2023-09-07T17:18:21;4.15;;;3.67;;
11422;SDS011;5768;51.476;7.210;2023-09-07T17:23:24;4.80;;;4.07;;
11422;SDS011;5768;51.476;7.210;2023-09-07T17:28:26;4.25;;;3.85;;
11422;SDS011;5768;51.476;7.210;2023-09-07T17:33:30;5.03;;;4.63;;
11422;SDS011;5768;51.476;7.210;2023-09-07T17:38:33;11.80;;;10.65;;
11422;SDS011;5768;51.476;7.210;2023-09-07T17:43:35;10.85;;;9.93;;
11422;SDS011;5768;51.476;7.210;2023-09-07T17:48:38;7.65;;;6.95;;
11422;SDS011;5768;51.476;7.210;2023-09-07T17:53:41;7.07;;;5.13;;
11422;SDS011;5768;51.476;7.210;2023-09-07T17:58:46;5.45;;;4.50;;
11422;SDS011;5768;51.476;7.210;2023-09-07T18:03:50;5.97;;;4.43;;
11422;SDS011;5768;51.476;7.210;2023-09-07T18:08:52;5.78;;;5.18;;
11422;SDS011;5768;51.476;7.210;2023-09-07T18:13:54;6.88;;;4.72;;
11422;SDS011;5768;51.476;7.210;2023-09-07T18:18:58;5.93;;;4.25;;
11422;SDS011;5768;51.476;7.210;2023-09-07T18:24:01;13.48;;;5.38;;
11422;SDS011;5768;51.476;7.210;2023-09-07T18:29:03;7.43;;;4.38;;
11422;SDS011;5768;51.476;7.210;2023-09-07T18:34:07;8.95;;;5.22;;
11422;SDS011;5768;51.476;7.210;2023-09-07T18:39:10;11.15;;;6.65;;
11422;SDS011;5768;51.476;7.210;2023-09-07T18:44:13;6.10;;;5.50;;
11422;SDS011;5768;51.476;7.210;2023-09-07T18:49:17;10.60;;;9.57;;
11422;SDS011;5768;51.476;7.210;2023-09-07T18:54:20;10.95;;;7.15;;
11422;SDS011;5768;51.476;7.210;2023-09-07T18:59:23;10.13;;;5.68;;
11422;SDS011;5768;51.476;7.210;2023-09-07T19:04:27;5.35;;;4.78;;
11422;SDS011;5768;51.476;7.210;2023-09-07T19:09:32;7.82;;;4.18;;
11422;SDS011;5768;51.476;7.210;2023-09-07T19:14:36;7.63;;;4.82;;
11422;SDS011;5768;51.476;7.210;2023-09-07T19:19:42;7.05;;;4.40;;
11422;SDS011;5768;51.476;7.210;2023-09-07T19:24:47;5.03;;;4.60;;
11422;SDS011;5768;51.476;7.210;2023-09-07T19:29:52;8.40;;;4.68;;
11422;SDS011;5768;51.476;7.210;2023-09-07T19:35:01;6.30;;;4.50;;
11422;SDS011;5768;51.476;7.210;2023-09-07T19:40:09;6.22;;;4.53;;
11422;SDS011;5768;51.476;7.210;2023-09-07T19:45:13;7.30;;;4.90;;
11422;SDS011;5768;51.476;7.210;2023-09-07T19:50:27;7.28;;;5.82;;
11422;SDS011;5768;51.476;7.210;2023-09-07T19:55:29;7.10;;;5.55;;
11422;SDS011;5768;51.476;7.210;2023-09-07T20:00:35;6.88;;;5.38;;
11422;SDS011;5768;51.476;7.210;2023-09-07T20:05:44;5.60;;;5.00;;
11422;SDS011;5768;51.476;7.210;2023-09-07T20:10:56;11.63;;;5.22;;
11422;SDS011;5768;51.476;7.210;2023-09-07T20:16:08;6.05;;;4.72;;
11422;SDS011;5768;51.476;7.210;2023-09-07T20:21:17;7.45;;;5.40;;
11422;SDS011;5768;51.476;7.210;2023-09-07T20:26:20;5.55;;;4.95;;
11422;SDS011;5768;51.476;7.210;2023-09-07T20:31:23;6.35;;;5.30;;
11422;SDS011;5768;51.476;7.210;2023-09-07T20:36:28;8.90;;;4.90;;
11422;SDS011;5768;51.476;7.210;2023-09-07T20:41:31;5.40;;;4.93;;
11422;SDS011;5768;51.476;7.210;2023-09-07T20:46:40;6.00;;;4.97;;
11422;SDS011;5768;51.476;7.210;2023-09-07T20:51:59;6.15;;;5.28;;
11422;SDS011;5768;51.476;7.210;2023-09-07T20:57:06;6.45;;;5.70;;
11422;SDS011;5768;51.476;7.210;2023-09-07T21:02:16;7.00;;;5.78;;
11422;SDS011;5768;51.476;7.210;2023-09-07T21:07:51;8.05;;;5.93;;
11422;SDS011;5768;51.476;7.210;2023-09-07T21:12:54;7.53;;;5.57;;
11422;SDS011;5768;51.476;7.210;2023-09-07T21:18:01;8.90;;;6.28;;
11422;SDS011;5768;51.476;7.210;2023-09-07T21:28:57;6.88;;;6.18;;
11422;SDS011;5768;51.476;7.210;2023-09-07T21:34:02;6.30;;;5.70;;
11422;SDS011;5768;51.476;7.210;2023-09-07T21:39:10;6.82;;;5.75;;
11422;SDS011;5768;51.476;7.210;2023-09-07T21:44:13;7.32;;;5.75;;
11422;SDS011;5768;51.476;7.210;2023-09-07T21:49:18;6.18;;;5.47;;
11422;SDS011;5768;51.476;7.210;2023-09-07T21:54:23;6.70;;;5.82;;
11422;SDS011;5768;51.476;7.210;2023-09-07T21:59:26;6.15;;;5.55;;
11422;SDS011;5768;51.476;7.210;2023-09-07T22:04:29;6.63;;;5.72;;
11422;SDS011;5768;51.476;7.210;2023-09-07T22:09:36;6.32;;;5.65;;
11422;SDS011;5768;51.476;7.210;2023-09-07T22:14:39;9.88;;;6.15;;
11422;SDS011;5768;51.476;7.210;2023-09-07T22:19:42;6.80;;;6.20;;
11422;SDS011;5768;51.476;7.210;2023-09-07T22:24:53;7.43;;;6.25;;
11422;SDS011;5768;51.476;7.210;2023-09-07T22:30:07;8.18;;;6.30;;
11422;SDS011;5768;51.476;7.210;2023-09-07T22:35:20;7.85;;;6.72;;
11422;SDS011;5768;51.476;7.210;2023-09-07T22:40:28;6.82;;;6.13;;
11422;SDS011;5768;51.476;7.210;2023-09-07T22:45:37;8.63;;;6.40;;
11422;SDS011;5768;51.476;7.210;2023-09-07T22:50:43;6.78;;;6.15;;
11422;SDS011;5768;51.476;7.210;2023-09-07T22:55:52;9.07;;;6.20;;
11422;SDS011;5768;51.476;7.210;2023-09-07T23:00:55;11.30;;;6.45;;
11422;SDS011;5768;51.476;7.210;2023-09-07T23:05:58;7.20;;;6.30;;
11422;SDS011;5768;51.476;7.210;2023-09-07T23:11:06;7.65;;;6.18;;
11422;SDS011;5768;51.476;7.210;2023-09-07T23:16:08;8.23;;;6.20;;
11422;SDS011;5768;51.476;7.210;2023-09-07T23:21:11;7.78;;;6.45;;
11422;SDS011;5768;51.476;7.210;2023-09-07T23:26:15;7.00;;;6.30;;
11422;SDS011;5768;51.476;7.210;2023-09-07T23:31:23;7.65;;;6.18;;
11422;SDS011;5768;51.476;7.210;2023-09-07T23:36:25;12.70;;;6.47;;
11422;SDS011;5768;51.476;7.210;2023-09-07T23:41:29;9.13;;;6.40;;
11422;SDS011;5768;51.476;7.210;2023-09-07T23:46:32;9.43;;;6.03;;
11422;SDS011;5768;51.476;7.210;2023-09-07T23:51:34;10.07;;;7.00;;
11422;SDS011;5768;51.476;7.210;2023-09-07T23:56:38;8.05;;;7.25;;
